Time;durP1;ratioP1;P1;durP2;ratioP2;P2;SDS_P1;SDS_P2;PMS_P1;PMS_P2;Temp;Humidity;BMP_temperature;BMP_pressure;BME280_temperature;BME280_humidity;BME280_pressure;Samples;Min_cycle;Max_cycle;Signal;HPM_P1;HPM_P2
2021/04/16 00:01:24;;;;;;;3.85;1.05;;;;;;;7.19;100.00;100133.48;1707731;83;21154;-48
2021/04/16 00:03:53;;;;;;;2.40;1.82;;;;;;;7.18;100.00;100135.39;1727223;82;21142;-47
2021/04/16 00:06:21;;;;;;;3.08;2.83;;;;;;;7.18;100.00;100135.39;1707781;83;21201;-48
2021/04/16 00:08:49;;;;;;;2.90;2.08;;;;;;;7.19;100.00;100135.65;1698042;84;21145;-48
2021/04/16 00:11:22;;;;;;;2.65;1.22;;;;;;;7.19;100.00;100126.69;1697924;84;21129;-48
2021/04/16 00:13:52;;;;;;;0.80;0.80;;;;;;;7.18;100.00;100135.39;1697977;84;21154;-47
2021/04/16 00:16:25;;;;;;;2.67;2.52;;;;;;;7.17;100.00;100131.05;1698029;84;21150;-47
2021/04/16 00:18:54;;;;;;;1.67;1.50;;;;;;;7.18;100.00;100133.22;1697932;84;21296;-48
2021/04/16 00:21:25;;;;;;;0.72;0.72;;;;;;;7.18;100.00;100135.39;1701850;83;21141;-47
2021/04/16 00:23:54;;;;;;;1.82;1.72;;;;;;;7.20;100.00;100137.85;1703069;84;21288;-48
2021/04/16 00:26:21;;;;;;;0.47;0.47;;;;;;;7.20;100.00;100138.66;1703359;84;21174;-48
2021/04/16 00:28:49;;;;;;;1.65;1.55;;;;;;;7.19;100.00;100131.58;1703266;84;21133;-47
2021/04/16 00:31:23;;;;;;;0.88;0.88;;;;;;;7.19;100.00;100133.48;1703425;84;21200;-47
2021/04/16 00:33:51;;;;;;;5.00;1.35;;;;;;;7.19;100.00;100138.91;1703619;84;21130;-48
2021/04/16 00:36:20;;;;;;;3.35;1.37;;;;;;;7.19;100.00;100134.29;1703177;84;21118;-48
2021/04/16 00:38:49;;;;;;;0.80;0.80;;;;;;;7.21;100.00;100132.68;1707082;82;21473;-48
2021/04/16 00:41:21;;;;;;;3.00;2.65;;;;;;;7.21;100.00;100130.77;1703275;84;21141;-47
2021/04/16 00:43:49;;;;;;;1.15;1.15;;;;;;;7.21;100.00;100128.61;1703194;84;21206;-47
2021/04/16 00:46:53;;;;;;;2.55;2.27;;;;;;;7.21;100.00;100130.77;1703619;82;21126;-47
2021/04/16 00:49:25;;;;;;;1.47;1.37;;;;;;;7.20;100.00;100127.80;1703543;84;21158;-47
2021/04/16 00:51:57;;;;;;;1.20;0.60;;;;;;;7.16;100.00;100140.27;1674818;84;21157;-48
2021/04/16 00:54:37;;;;;;;1.22;0.88;;;;;;;7.13;100.00;100134.00;1677925;84;21145;-47
2021/04/16 00:57:06;;;;;;;2.45;0.82;;;;;;;7.09;100.00;100134.25;1710291;82;21671;-48
2021/04/16 00:59:37;;;;;;;1.80;1.52;;;;;;;7.07;100.00;100139.13;1703250;84;21145;-48
2021/04/16 01:02:04;;;;;;;2.55;2.35;;;;;;;7.04;100.00;100136.39;1705259;82;21500;-47
2021/04/16 01:04:32;;;;;;;4.47;1.75;;;;;;;7.03;100.00;100133.95;1730644;82;21485;-48
2021/04/16 01:07:01;;;;;;;2.02;1.92;;;;;;;7.04;100.00;100132.86;1732288;82;21157;-47
2021/04/16 01:09:29;;;;;;;5.83;2.35;;;;;;;7.06;100.00;100130.70;1730133;82;21130;-47
2021/04/16 01:11:59;;;;;;;3.80;3.00;;;;;;;7.07;100.00;100134.53;1732194;82;21157;-48
2021/04/16 01:14:28;;;;;;;0.88;0.85;;;;;;;7.09;100.00;100128.81;1702038;82;21410;-47
2021/04/16 01:16:56;;;;;;;3.00;2.60;;;;;;;7.10;100.00;100130.47;1728933;82;21208;-47
2021/04/16 01:19:52;;;;;;;0.57;0.55;;;;;;;7.10;100.00;100125.84;1702849;84;21433;-47
2021/04/16 01:22:37;;;;;;;4.15;2.47;;;;;;;7.13;100.00;100132.64;1702756;84;21141;-47
2021/04/16 01:25:07;;;;;;;0.95;0.95;;;;;;;7.14;100.00;100132.91;1675582;84;21165;-48
2021/04/16 01:27:36;;;;;;;1.82;1.72;;;;;;;7.14;100.00;100138.34;1703046;84;21166;-48
2021/04/16 01:30:12;;;;;;;3.62;2.27;;;;;;;7.13;100.00;100135.36;1703084;84;21153;-48
2021/04/16 01:32:42;;;;;;;1.65;1.55;;;;;;;7.14;100.00;100136.98;1703003;84;22084;-48
2021/04/16 01:35:16;;;;;;;5.95;2.12;;;;;;;7.14;100.00;100130.20;1703064;84;21185;-48
2021/04/16 01:37:45;;;;;;;2.67;1.17;;;;;;;7.13;100.00;100127.21;1703324;84;21161;-47
2021/04/16 01:40:13;;;;;;;2.25;1.85;;;;;;;7.11;100.00;100126.11;1703092;84;21125;-48
2021/04/16 01:42:42;;;;;;;2.27;1.32;;;;;;;7.10;100.00;100133.99;1703220;84;21110;-47
2021/04/16 01:45:24;;;;;;;2.45;2.25;;;;;;;7.11;100.00;100122.58;1703365;84;21081;-49
2021/04/16 01:47:55;;;;;;;1.55;1.05;;;;;;;7.12;100.00;100132.35;1703415;84;21173;-48
2021/04/16 01:50:24;;;;;;;1.45;0.93;;;;;;;7.11;100.00;100130.19;1703520;84;21264;-47
2021/04/16 01:52:51;;;;;;;1.90;1.80;;;;;;;7.09;100.00;100128.81;1703359;84;21133;-48
2021/04/16 01:55:20;;;;;;;3.72;2.40;;;;;;;7.09;100.00;100128.27;1703202;84;21114;-48
2021/04/16 01:57:48;;;;;;;0.75;0.75;;;;;;;7.11;100.00;100130.19;1703123;84;21458;-49
2021/04/16 02:00:21;;;;;;;2.12;1.75;;;;;;;7.12;100.00;100129.63;1720597;82;21464;-48
2021/04/16 02:02:50;;;;;;;0.65;0.65;;;;;;;7.14;100.00;100130.20;1704531;82;21129;-48
2021/04/16 02:05:18;;;;;;;1.12;1.10;;;;;;;7.13;100.00;100123.69;1726641;82;21594;-48
2021/04/16 02:07:46;;;;;;;1.62;1.45;;;;;;;7.13;100.00;100125.05;1732282;82;21482;-48
2021/04/16 02:10:14;;;;;;;0.60;0.60;;;;;;;7.12;100.00;100122.84;1732268;82;21154;-48
2021/04/16 02:12:41;;;;;;;1.15;0.82;;;;;;;7.13;100.00;100120.97;1732305;82;21126;-48
2021/04/16 02:15:12;;;;;;;3.42;1.25;;;;;;;7.13;100.00;100120.97;1730000;81;21544;-49
2021/04/16 02:17:39;;;;;;;2.92;1.67;;;;;;;7.11;100.00;100119.31;1716888;82;21616;-48
2021/04/16 02:20:21;;;;;;;1.67;1.57;;;;;;;7.12;100.00;100111.97;1732230;82;21158;-48
2021/04/16 02:22:48;;;;;;;0.47;0.47;;;;;;;7.12;100.00;100116.05;1715400;82;21149;-48
2021/04/16 02:25:16;;;;;;;0.57;0.57;;;;;;;7.10;100.00;100119.05;1702781;84;21576;-48
2021/04/16 02:27:43;;;;;;;1.55;1.37;;;;;;;7.10;100.00;100115.52;1703004;84;21445;-48
2021/04/16 02:30:23;;;;;;;1.90;1.75;;;;;;;7.07;100.00;100115.52;1702979;84;21134;-47
2021/04/16 02:32:50;;;;;;;0.75;0.75;;;;;;;7.05;100.00;100120.39;1703037;84;21184;-48
2021/04/16 02:35:19;;;;;;;0.93;0.93;;;;;;;7.04;100.00;100112.48;1702930;84;21157;-48
2021/04/16 02:37:47;;;;;;;3.58;1.00;;;;;;;7.03;100.00;100113.58;1702939;84;21371;-48
2021/04/16 02:40:17;;;;;;;0.45;0.45;;;;;;;7.02;100.00;100120.92;1702980;84;21572;-48
2021/04/16 02:42:45;;;;;;;3.92;2.85;;;;;;;6.99;100.00;100115.99;1703253;84;21448;-48
2021/04/16 02:45:14;;;;;;;0.40;0.40;;;;;;;6.99;100.00;100113.82;1703011;84;21445;-48
2021/04/16 02:47:42;;;;;;;0.60;0.60;;;;;;;6.99;100.00;100110.55;1703019;84;21141;-48
2021/04/16 02:50:13;;;;;;;2.58;2.35;;;;;;;6.99;100.00;100110.55;1721421;82;21557;-48
2021/04/16 02:52:40;;;;;;;1.00;0.93;;;;;;;6.99;100.00;100109.75;1732489;82;21477;-48
2021/04/16 02:55:09;;;;;;;0.25;0.25;;;;;;;6.97;100.00;100112.72;1732560;82;21118;-48
2021/04/16 02:57:37;;;;;;;1.27;1.22;;;;;;;6.97;100.00;100114.63;1730357;82;21114;-47
2021/04/16 03:00:11;;;;;;;1.00;1.00;;;;;;;6.95;100.00;100107.27;1703417;84;21496;-47
2021/04/16 03:02:38;;;;;;;0.47;0.47;;;;;;;6.93;100.00;100118.42;1703222;84;21169;-48
2021/04/16 03:05:07;;;;;;;1.92;1.67;;;;;;;6.92;100.00;100111.87;1694821;83;21185;-49
2021/04/16 03:07:35;;;;;;;0.40;0.40;;;;;;;6.88;100.00;100111.60;1709589;82;21165;-49
2021/04/16 03:10:05;;;;;;;0.60;0.47;;;;;;;6.87;100.00;100118.94;1732197;82;21114;-47
2021/04/16 03:12:34;;;;;;;0.60;0.60;;;;;;;6.85;100.00;100119.73;1718475;82;21580;-49
2021/04/16 03:15:08;;;;;;;1.02;0.90;;;;;;;6.86;100.00;100122.72;1703145;84;21465;-47
2021/04/16 03:17:35;;;;;;;0.65;0.65;;;;;;;6.86;100.00;100122.72;1703247;84;21149;-47
2021/04/16 03:20:06;;;;;;;0.70;0.70;;;;;;;6.85;100.00;100130.59;1703215;84;21142;-47
2021/04/16 03:22:36;;;;;;;0.37;0.37;;;;;;;6.88;100.00;100134.69;1703245;83;21126;-49
2021/04/16 03:25:05;;;;;;;1.12;0.20;;;;;;;6.91;100.00;100134.70;1703309;84;21158;-47
2021/04/16 03:27:34;;;;;;;1.72;1.47;;;;;;;6.97;100.00;100129.56;1703416;84;21019;-47
2021/04/16 03:30:03;;;;;;;1.85;1.05;;;;;;;7.04;100.00;100142.37;1703534;84;21161;-48
2021/04/16 03:32:30;;;;;;;2.95;1.77;;;;;;;7.12;100.00;100128.27;1703505;84;21133;-47
2021/04/16 03:34:58;;;;;;;1.75;1.65;;;;;;;7.20;100.00;100135.95;1703335;84;21130;-47
2021/04/16 03:37:26;;;;;;;1.35;0.90;;;;;;;7.28;100.00;100140.87;1703195;84;21170;-48
2021/04/16 03:39:54;;;;;;;3.00;2.37;;;;;;;7.37;100.00;100145.78;1703210;84;21161;-48
2021/04/16 03:42:21;;;;;;;1.72;1.62;;;;;;;7.43;100.00;100145.55;1703442;84;21161;-47
2021/04/16 03:44:48;;;;;;;2.17;1.05;;;;;;;7.49;100.00;100147.22;1703405;84;21154;-46
2021/04/16 03:47:17;;;;;;;1.65;1.52;;;;;;;7.55;100.00;100143.97;1703386;84;21149;-47
2021/04/16 03:49:45;;;;;;;2.17;1.65;;;;;;;7.61;100.00;100149.69;1703405;84;21142;-47
2021/04/16 03:52:13;;;;;;;5.70;1.17;;;;;;;7.67;100.00;100146.46;1703368;84;21457;-47
2021/04/16 03:54:40;;;;;;;0.93;0.93;;;;;;;7.72;100.00;100154.09;1703549;84;21121;-47
2021/04/16 03:57:09;;;;;;;2.98;1.37;;;;;;;7.78;100.00;100152.19;1703436;84;21611;-47
2021/04/16 03:59:37;;;;;;;0.72;0.72;;;;;;;7.86;100.00;100156.28;1703372;84;21153;-46
2021/04/16 04:02:04;;;;;;;0.53;0.53;;;;;;;7.94;100.00;100152.52;1703377;84;21137;-48
2021/04/16 04:04:33;;;;;;;1.22;0.55;;;;;;;8.03;100.00;100152.78;1703348;84;21115;-47
2021/04/16 04:07:01;;;;;;;1.75;1.47;;;;;;;8.14;100.00;100155.80;1703501;84;21165;-48
2021/04/16 04:09:28;;;;;;;1.70;0.85;;;;;;;8.26;100.00;100156.08;1703346;84;21157;-47
2021/04/16 04:11:58;;;;;;;1.77;0.78;;;;;;;8.37;100.00;100152.28;1703316;84;21160;-47
2021/04/16 04:14:27;;;;;;;0.10;0.10;;;;;;;8.49;100.00;100156.13;1703228;84;21468;-47
2021/04/16 04:16:58;;;;;;;1.12;1.10;;;;;;;8.59;100.00;100156.94;1703124;84;21194;-48
2021/04/16 04:19:27;;;;;;;1.50;1.40;;;;;;;8.72;100.00;100164.28;1703297;84;21129;-48
2021/04/16 04:21:58;;;;;;;1.17;1.17;;;;;;;8.80;100.00;100163.72;1703347;83;21149;-47
2021/04/16 04:24:27;;;;;;;0.28;0.28;;;;;;;8.89;100.00;100163.44;1703359;84;21429;-47
2021/04/16 04:26:54;;;;;;;0.55;0.23;;;;;;;8.94;100.00;100167.52;1703154;84;21153;-48
2021/04/16 04:29:23;;;;;;;1.17;1.07;;;;;;;9.00;100.00;100166.95;1703092;84;21142;-48
2021/04/16 04:31:51;;;;;;;2.75;0.95;;;;;;;9.03;100.00;100170.52;1702794;84;21196;-48
2021/04/16 04:34:22;;;;;;;1.05;1.00;;;;;;;9.07;100.00;100172.13;1703142;84;21134;-46
2021/04/16 04:36:52;;;;;;;0.72;0.72;;;;;;;9.08;100.00;100175.14;1702979;84;21579;-47
2021/04/16 04:39:20;;;;;;;0.42;0.42;;;;;;;9.08;100.00;100168.33;1703322;84;21149;-48
2021/04/16 04:41:48;;;;;;;0.47;0.47;;;;;;;9.09;100.00;100168.03;1703232;84;21153;-47
2021/04/16 04:44:15;;;;;;;1.17;1.12;;;;;;;9.12;100.00;100173.48;1707623;82;21943;-48
2021/04/16 04:46:43;;;;;;;1.15;1.15;;;;;;;9.15;100.00;100177.01;1710487;82;21169;-48
2021/04/16 04:49:11;;;;;;;0.93;0.90;;;;;;;9.17;100.00;100179.76;1703348;83;21130;-48
2021/04/16 04:51:39;;;;;;;0.95;0.80;;;;;;;9.21;100.00;100173.19;1703471;84;21453;-47
2021/04/16 04:54:07;;;;;;;0.65;0.53;;;;;;;9.24;100.00;100177.53;1703368;83;21847;-48
2021/04/16 04:56:36;;;;;;;1.80;1.00;;;;;;;9.27;100.00;100170.70;1703238;84;21492;-47
2021/04/16 04:59:04;;;;;;;1.15;0.65;;;;;;;9.28;99.95;100166.09;1703180;83;21195;-47
2021/04/16 05:01:31;;;;;;;2.67;1.10;;;;;;;9.28;99.74;100169.63;1703306;84;21279;-48
2021/04/16 05:03:59;;;;;;;1.32;1.05;;;;;;;9.29;99.56;100171.25;1703271;83;21449;-47
2021/04/16 05:06:26;;;;;;;0.40;0.17;;;;;;;9.30;99.31;100168.81;1703132;84;21145;-48
2021/04/16 05:08:55;;;;;;;2.02;1.17;;;;;;;9.31;99.08;100169.62;1716651;82;21233;-48
2021/04/16 05:11:22;;;;;;;0.40;0.40;;;;;;;9.30;98.92;100169.33;1707354;82;21137;-48
2021/04/16 05:13:51;;;;;;;1.25;1.15;;;;;;;9.28;98.66;100170.19;1703380;84;20994;-47
2021/04/16 05:16:19;;;;;;;0.95;0.95;;;;;;;9.25;98.46;100171.00;1705640;82;21668;-49
2021/04/16 05:18:51;;;;;;;3.60;1.00;;;;;;;9.25;98.30;100172.92;1722181;82;21153;-48
2021/04/16 05:21:18;;;;;;;3.12;1.10;;;;;;;9.22;98.16;100174.81;1703261;83;21562;-48
2021/04/16 05:23:46;;;;;;;1.87;1.75;;;;;;;9.20;98.01;100174.30;1703184;82;21181;-48
2021/04/16 05:26:13;;;;;;;0.53;0.47;;;;;;;9.20;97.87;100175.11;1704090;82;21149;-48
2021/04/16 05:28:41;;;;;;;2.12;1.32;;;;;;;9.20;97.57;100171.02;1720001;82;21169;-48
2021/04/16 05:31:09;;;;;;;1.17;0.95;;;;;;;9.19;97.29;100178.91;1728867;82;21161;-48
2021/04/16 05:33:37;;;;;;;0.30;0.30;;;;;;;9.20;97.31;100177.02;1722216;82;21648;-49
2021/04/16 05:36:05;;;;;;;1.07;1.02;;;;;;;9.23;97.21;100174.55;1714863;82;21149;-48
2021/04/16 05:38:33;;;;;;;1.50;1.40;;;;;;;9.27;97.08;100181.61;1702948;84;21171;-48
2021/04/16 05:41:01;;;;;;;1.40;1.30;;;;;;;9.32;97.14;100178.89;1730708;82;21627;-47
2021/04/16 05:43:28;;;;;;;1.17;0.85;;;;;;;9.37;96.61;100182.97;1732185;82;21138;-48
2021/04/16 05:45:58;;;;;;;4.22;1.10;;;;;;;9.39;96.45;100178.03;1712682;82;21121;-48
2021/04/16 05:48:26;;;;;;;0.30;0.30;;;;;;;9.42;96.10;100180.22;1703027;84;21161;-48
2021/04/16 05:50:54;;;;;;;1.47;1.37;;;;;;;9.44;95.92;100182.09;1708952;82;21186;-48
2021/04/16 05:53:21;;;;;;;0.82;0.82;;;;;;;9.47;95.85;100173.38;1732251;82;21338;-49
2021/04/16 05:55:49;;;;;;;6.62;1.80;;;;;;;9.51;95.58;100181.81;1732248;82;21613;-48
2021/04/16 05:58:16;;;;;;;2.10;1.10;;;;;;;9.55;95.52;100173.91;1730852;82;21114;-48
2021/04/16 06:00:44;;;;;;;1.07;0.75;;;;;;;9.58;95.11;100173.34;1722175;82;21158;-49
2021/04/16 06:03:12;;;;;;;9.13;1.75;;;;;;;9.61;95.18;100174.95;1705690;82;21436;-48
2021/04/16 06:05:39;;;;;;;2.80;1.32;;;;;;;9.67;95.05;100175.77;1711565;82;21118;-49
2021/04/16 06:08:07;;;;;;;5.10;1.22;;;;;;;9.72;95.02;100177.09;1705711;82;21205;-48
2021/04/16 06:10:35;;;;;;;2.45;0.70;;;;;;;9.77;94.53;100181.16;1745993;81;21170;-48
2021/04/16 06:13:03;;;;;;;1.82;1.52;;;;;;;9.83;94.51;100179.22;1719886;83;21131;-48
2021/04/16 06:15:31;;;;;;;1.32;0.80;;;;;;;9.88;94.29;100177.27;1694948;84;21118;-49
2021/04/16 06:17:59;;;;;;;0.28;0.25;;;;;;;9.97;94.17;100180.80;1707700;82;21169;-48
2021/04/16 06:20:27;;;;;;;0.95;0.90;;;;;;;10.01;93.79;100184.02;1720164;81;21210;-49
2021/04/16 06:22:56;;;;;;;1.95;0.82;;;;;;;10.06;93.66;100179.92;1694558;83;21442;-48
2021/04/16 06:25:28;;;;;;;3.02;1.22;;;;;;;10.10;93.50;100180.16;1729794;81;21121;-49
2021/04/16 06:27:56;;;;;;;2.42;0.78;;;;;;;10.17;93.48;100186.13;1728937;82;21198;-49
2021/04/16 06:30:25;;;;;;;3.20;2.30;;;;;;;10.28;93.26;100184.16;1702760;83;21150;-49
2021/04/16 06:33:06;;;;;;;2.95;1.90;;;;;;;10.37;92.64;100187.12;1729090;82;21201;-49
2021/04/16 06:35:35;;;;;;;3.92;1.45;;;;;;;10.45;92.18;100183.77;1785914;80;21142;-49
2021/04/16 06:38:03;;;;;;;1.92;1.77;;;;;;;10.51;91.83;100176.63;1788573;80;21516;-49
2021/04/16 06:40:30;;;;;;;0.50;0.50;;;;;;;10.58;91.38;100180.38;1759511;80;21130;-48
2021/04/16 06:42:58;;;;;;;1.37;1.07;;;;;;;10.65;90.73;100181.42;1775068;80;21129;-49
2021/04/16 06:45:30;;;;;;;3.83;1.30;;;;;;;10.67;90.07;100187.42;1763868;80;21110;-49
2021/04/16 06:48:05;;;;;;;1.57;0.90;;;;;;;10.68;89.91;100192.61;1788314;79;21153;-49
2021/04/16 06:50:38;;;;;;;1.35;1.12;;;;;;;10.66;89.16;100185.24;1785731;80;21090;-48
2021/04/16 06:53:25;;;;;;;2.37;1.00;;;;;;;10.63;88.91;100195.39;1734731;81;21166;-49
2021/04/16 06:56:03;;;;;;;1.82;0.90;;;;;;;10.61;89.18;100197.58;1726871;83;21182;-49
2021/04/16 06:58:39;;;;;;;3.95;2.83;;;;;;;10.63;89.62;100192.66;1725500;82;21165;-49
2021/04/16 07:01:26;;;;;;;1.02;1.02;;;;;;;10.64;89.67;100198.38;1754541;80;21190;-49
2021/04/16 07:04:18;;;;;;;1.20;0.75;;;;;;;10.69;90.11;100196.15;1786112;80;21281;-49
2021/04/16 07:06:45;;;;;;;1.80;0.95;;;;;;;10.76;90.87;100202.11;1788733;80;21159;-48
2021/04/16 07:09:15;;;;;;;1.22;0.98;;;;;;;10.84;91.51;100191.91;1764270;79;21147;-48
2021/04/16 07:12:06;;;;;;;2.15;0.90;;;;;;;10.93;92.10;100197.59;1782873;80;21188;-48
2021/04/16 07:14:48;;;;;;;5.25;2.42;;;;;;;11.01;92.29;100206.52;1734935;81;21534;-48
2021/04/16 07:17:29;;;;;;;3.25;2.70;;;;;;;11.13;91.92;100196.57;1864618;76;22740;-47
2021/04/16 07:19:57;;;;;;;1.42;1.32;;;;;;;11.17;92.11;100201.14;1806909;78;21091;-48
2021/04/16 07:22:42;;;;;;;1.15;1.15;;;;;;;11.26;91.71;100202.71;1789164;78;21166;-48
2021/04/16 07:25:36;;;;;;;1.50;1.37;;;;;;;11.35;91.80;100203.72;1821561;77;21141;-48
2021/04/16 07:28:08;;;;;;;2.00;0.82;;;;;;;11.40;91.05;100200.11;1787481;78;21159;-48
2021/04/16 07:30:46;;;;;;;1.12;1.05;;;;;;;11.45;90.71;100207.42;1787051;79;21127;-48
2021/04/16 07:33:32;;;;;;;1.87;1.37;;;;;;;11.51;90.29;100204.34;1788221;78;21636;-49
2021/04/16 07:36:36;;;;;;;3.80;2.15;;;;;;;11.57;89.76;100201.83;1785393;78;21594;-49
2021/04/16 07:39:17;;;;;;;2.47;2.37;;;;;;;11.59;89.38;100198.77;1786137;78;21150;-49
2021/04/16 07:41:53;;;;;;;0.85;0.85;;;;;;;11.62;89.40;100201.76;1787934;78;21453;-48
2021/04/16 07:44:35;;;;;;;1.82;1.67;;;;;;;11.69;88.96;100201.95;1786245;78;21000;-48
2021/04/16 07:47:13;;;;;;;3.00;1.52;;;;;;;11.79;88.60;100198.55;1763700;79;21186;-49
2021/04/16 07:50:12;;;;;;;4.50;2.37;;;;;;;11.87;87.91;100202.58;1751416;79;21143;-48
2021/04/16 07:52:43;;;;;;;3.12;2.02;;;;;;;11.89;87.37;100203.63;1763283;79;21123;-49
2021/04/16 07:55:29;;;;;;;2.08;1.37;;;;;;;11.91;86.56;100199.49;1768493;79;21119;-48
2021/04/16 07:58:17;;;;;;;1.60;0.90;;;;;;;11.89;86.41;100205.81;1763458;79;21127;-48
2021/04/16 08:00:45;;;;;;;1.55;1.45;;;;;;;11.84;85.90;100208.05;1793227;78;21159;-48
2021/04/16 08:03:17;;;;;;;2.33;1.27;;;;;;;11.75;85.96;100207.63;1799828;78;21538;-48
2021/04/16 08:05:53;;;;;;;2.47;1.75;;;;;;;11.67;86.13;100206.36;1756722;81;21179;-48
2021/04/16 08:08:30;;;;;;;1.25;1.20;;;;;;;11.62;86.33;100204.50;1795793;78;21485;-48
2021/04/16 08:11:09;;;;;;;1.17;1.07;;;;;;;11.55;86.30;100208.14;1794994;78;21541;-48
2021/04/16 08:13:51;;;;;;;2.85;1.42;;;;;;;11.49;86.43;100213.39;1792221;78;21525;-48
2021/04/16 08:16:26;;;;;;;0.90;0.88;;;;;;;11.45;86.36;100211.00;1789764;78;21120;-48
2021/04/16 08:19:26;;;;;;;2.52;1.47;;;;;;;11.38;86.68;100202.31;1798494;78;21692;-48
2021/04/16 08:22:08;;;;;;;2.15;0.60;;;;;;;11.35;86.90;100205.61;1764202;80;21093;-49
2021/04/16 08:24:54;;;;;;;1.10;1.05;;;;;;;11.35;87.20;100205.61;1787007;78;21150;-49
2021/04/16 08:27:46;;;;;;;1.72;0.88;;;;;;;11.44;87.78;100206.61;1766320;80;21119;-49
2021/04/16 08:30:46;;;;;;;2.65;1.70;;;;;;;11.54;88.10;100200.20;1762472;80;21185;-49
2021/04/16 08:33:31;;;;;;;3.37;1.17;;;;;;;11.60;88.25;100195.76;1730623;80;21149;-49
2021/04/16 08:36:15;;;;;;;1.15;1.02;;;;;;;11.70;88.87;100193.45;1759841;81;21158;-48
2021/04/16 08:39:10;;;;;;;0.62;0.45;;;;;;;11.83;88.40;100197.39;1765573;80;21127;-48
2021/04/16 08:41:43;;;;;;;3.62;1.30;;;;;;;11.91;88.27;100196.75;1745145;80;21590;-49
2021/04/16 08:44:11;;;;;;;1.75;1.07;;;;;;;11.98;88.40;100193.66;1768741;80;21596;-49
2021/04/16 08:46:46;;;;;;;2.67;1.32;;;;;;;12.02;87.95;100194.16;1761979;81;21122;-49
2021/04/16 08:49:33;;;;;;;0.53;0.53;;;;;;;12.10;88.21;100198.14;1768037;80;21108;-48
2021/04/16 08:52:12;;;;;;;2.72;1.15;;;;;;;12.20;88.11;100188.97;1762118;81;21521;-49
2021/04/16 08:54:42;;;;;;;2.02;1.70;;;;;;;12.28;87.71;100195.14;1761929;80;21128;-48
2021/04/16 08:57:30;;;;;;;1.17;1.07;;;;;;;12.31;87.71;100200.58;1761348;81;21143;-49
2021/04/16 09:00:15;;;;;;;0.60;0.60;;;;;;;12.31;87.46;100195.91;1742961;81;21131;-47
2021/04/16 09:02:52;;;;;;;0.82;0.82;;;;;;;12.24;86.99;100192.75;1763761;80;21143;-49
2021/04/16 09:05:36;;;;;;;1.75;0.93;;;;;;;12.14;87.04;100199.20;1782959;80;21132;-50
2021/04/16 09:08:13;;;;;;;0.65;0.37;;;;;;;12.00;87.19;100193.63;1761120;81;21115;-50
2021/04/16 09:10:55;;;;;;;2.08;1.72;;;;;;;11.86;87.38;100194.05;1765643;80;21122;-49
2021/04/16 09:13:40;;;;;;;1.32;0.98;;;;;;;11.72;87.83;100189.87;1752653;81;21554;-50
2021/04/16 09:16:21;;;;;;;1.55;1.45;;;;;;;11.58;88.63;100199.34;1749161;80;21531;-45
2021/04/16 09:18:51;;;;;;;2.58;2.37;;;;;;;11.44;89.49;100197.03;1784061;80;21700;-51
2021/04/16 09:21:31;;;;;;;0.75;0.50;;;;;;;11.25;89.97;100194.78;1759733;80;21462;-45
2021/04/16 09:24:06;;;;;;;0.72;0.62;;;;;;;11.06;90.36;100199.63;1766878;80;21127;-45
2021/04/16 09:26:51;;;;;;;6.03;1.12;;;;;;;10.95;91.39;100193.98;1751760;80;21131;-44
2021/04/16 09:29:38;;;;;;;0.93;0.88;;;;;;;10.84;92.06;100195.20;1755422;80;21158;-44
2021/04/16 09:32:38;;;;;;;1.47;1.07;;;;;;;10.81;92.79;100194.42;1760159;80;21640;-43
2021/04/16 09:35:19;;;;;;;0.50;0.45;;;;;;;10.70;92.38;100197.21;1778003;80;22587;-44
2021/04/16 09:37:50;;;;;;;0.60;0.60;;;;;;;10.59;93.31;100191.58;1773871;80;21530;-45
2021/04/16 09:40:25;;;;;;;1.22;0.65;;;;;;;10.45;93.33;100198.23;1745727;80;21150;-45
2021/04/16 09:43:22;;;;;;;0.47;0.35;;;;;;;10.31;93.79;100199.45;1766924;80;21111;-44
2021/04/16 09:45:51;;;;;;;2.65;1.25;;;;;;;10.16;94.17;100198.12;1728263;81;21146;-46
2021/04/16 09:48:24;;;;;;;2.30;0.75;;;;;;;10.03;94.87;100189.20;1747863;80;21134;-45
2021/04/16 09:51:03;;;;;;;0.75;0.72;;;;;;;9.92;95.63;100195.28;1783857;80;21119;-45
2021/04/16 09:53:35;;;;;;;0.28;0.28;;;;;;;9.84;96.13;100198.58;1753268;81;21138;-45
2021/04/16 09:56:19;;;;;;;1.75;0.82;;;;;;;9.82;96.85;100205.70;1723076;81;21168;-50
2021/04/16 09:58:56;;;;;;;2.10;1.92;;;;;;;9.82;97.38;100205.70;1767381;80;21150;-51
2021/04/16 10:01:26;;;;;;;0.75;0.75;;;;;;;9.78;97.61;100208.70;1766027;80;21487;-50
2021/04/16 10:04:06;;;;;;;1.95;0.93;;;;;;;9.69;97.75;100214.47;1753284;81;21601;-50
2021/04/16 10:06:42;;;;;;;1.67;1.57;;;;;;;9.60;97.99;100228.44;1753879;80;21154;-50
2021/04/16 10:09:21;;;;;;;0.80;0.80;;;;;;;9.52;97.79;100222.17;1756720;80;21155;-52
2021/04/16 10:12:03;;;;;;;0.30;0.30;;;;;;;9.41;97.54;100224.13;1774900;80;21108;-52
2021/04/16 10:14:34;;;;;;;0.35;0.35;;;;;;;9.30;97.62;100213.80;1791773;79;21107;-52
2021/04/16 10:17:19;;;;;;;0.33;0.30;;;;;;;9.19;97.83;100219.80;1793996;79;21049;-53
2021/04/16 10:19:52;;;;;;;1.22;1.00;;;;;;;9.13;98.41;100216.02;1765394;80;21562;-52
2021/04/16 10:22:28;;;;;;;0.70;0.70;;;;;;;9.06;98.89;100215.48;1772940;79;21134;-47
2021/04/16 10:26:09;;;;;;;0.10;0.10;;;;;;;8.99;99.31;100217.92;1787438;80;21119;-50
2021/04/16 12:41:06;;;;;;;1.37;1.17;;;;;;;9.13;100.00;100267.81;1857881;76;28772;-46
2021/04/16 12:43:36;;;;;;;0.40;0.40;;;;;;;9.26;100.00;100271.33;1788040;78;21102;-45
2021/04/16 12:46:04;;;;;;;1.45;1.30;;;;;;;9.39;100.00;100272.11;1819410;77;21154;-45
2021/04/16 12:48:33;;;;;;;0.10;0.10;;;;;;;9.43;100.00;100269.67;1809100;78;21154;-46
2021/04/16 12:51:02;;;;;;;2.87;0.53;;;;;;;9.50;100.00;100266.11;1826063;77;21142;-46
2021/04/16 12:53:30;;;;;;;0.70;0.20;;;;;;;9.58;100.00;100267.45;1847851;77;21127;-45
2021/04/16 12:55:58;;;;;;;0.00;0.00;;;;;;;9.71;100.00;100265.48;1847832;77;21107;-45
2021/04/16 12:58:32;;;;;;;0.53;0.53;;;;;;;9.86;100.00;100265.42;1836743;77;21177;-45
2021/04/16 13:01:02;;;;;;;1.12;1.12;;;;;;;10.02;98.84;100266.75;1816816;78;21106;-45
2021/04/16 13:03:38;;;;;;;1.93;1.00;;;;;;;10.01;96.26;100267.83;1819948;77;21099;-45
2021/04/16 13:06:20;;;;;;;2.42;1.07;;;;;;;9.98;95.17;100270.57;1841419;77;21112;-45
2021/04/16 13:08:48;;;;;;;0.45;0.20;;;;;;;9.95;95.05;100269.77;1822118;77;21518;-45
2021/04/16 13:11:17;;;;;;;0.10;0.10;;;;;;;9.96;94.77;100277.41;1817844;77;21145;-45
2021/04/16 13:13:45;;;;;;;0.20;0.20;;;;;;;9.96;94.29;100277.41;1816903;77;21165;-45
2021/04/16 13:16:12;;;;;;;0.00;0.00;;;;;;;9.95;93.82;100283.42;1843290;77;21464;-45
2021/04/16 13:18:44;;;;;;;2.47;0.40;;;;;;;9.90;92.23;100282.08;1850265;77;21493;-45
2021/04/16 13:21:27;;;;;;;0.40;0.40;;;;;;;9.76;90.89;100291.39;1774080;80;21201;-46
2021/04/16 13:23:55;;;;;;;0.88;0.53;;;;;;;9.57;90.38;100286.25;1759145;80;21318;-45
2021/04/16 13:26:23;;;;;;;0.20;0.20;;;;;;;9.38;90.68;100293.67;1782000;80;21122;-45
2021/04/16 13:28:52;;;;;;;1.85;0.95;;;;;;;9.26;90.82;100298.59;1753552;80;21110;-45
2021/04/16 13:31:20;;;;;;;4.70;0.78;;;;;;;9.17;91.07;100296.14;1751378;81;21445;-45
2021/04/16 13:33:48;;;;;;;0.20;0.20;;;;;;;9.07;90.36;100298.32;1753005;80;21119;-44
2021/04/16 13:36:25;;;;;;;0.20;0.20;;;;;;;8.94;90.29;100302.41;1751184;81;21186;-46
2021/04/16 13:38:53;;;;;;;0.25;0.13;;;;;;;8.79;89.79;100312.76;1753562;80;21146;-46
2021/04/16 13:41:21;;;;;;;0.15;0.15;;;;;;;8.65;90.46;100311.64;1778989;80;21692;-45
2021/04/16 13:43:50;;;;;;;0.40;0.40;;;;;;;8.57;90.60;100309.45;1764196;80;21503;-45
2021/04/16 13:46:21;;;;;;;0.33;0.25;;;;;;;8.47;90.98;100318.42;1782104;80;21106;-45
2021/04/16 13:48:50;;;;;;;0.47;0.47;;;;;;;8.41;91.08;100327.67;1779441;80;21153;-45
2021/04/16 13:51:19;;;;;;;0.80;0.80;;;;;;;8.31;91.02;100324.89;1750860;80;21146;-45
2021/04/16 13:53:49;;;;;;;0.10;0.10;;;;;;;8.16;90.94;100326.47;1750530;81;21131;-45
2021/04/16 13:56:17;;;;;;;0.00;0.00;;;;;;;8.04;91.31;100324.52;1758210;80;21095;-44
2021/04/16 13:58:45;;;;;;;0.00;0.00;;;;;;;7.93;91.41;100329.62;1780352;80;21110;-44
2021/04/16 14:01:12;;;;;;;0.10;0.10;;;;;;;7.83;91.78;100330.93;1767428;80;21189;-45
2021/04/16 14:03:47;;;;;;;0.00;0.00;;;;;;;7.74;91.70;100332.80;1776769;80;21502;-44
2021/04/16 14:06:24;;;;;;;0.10;0.10;;;;;;;7.64;91.74;100335.47;1779922;80;21709;-46